world map with IFO marked

IFO - Airport

This information may not be accurate or current and is not valid for navigation or flight planning. No warranty of fitness for any purpose is made or implied.

flag of Ivano-Frankivskflag of Ukraine

Donate via PayPal

Additional information is available on the NEW Great Circle Mapper

Location
City:  Ivano-Frankovsk, Ivano-Frankivsk, Ukraine
ICAO / IATA:UKLI / IFO

Details
Type:Airport (Aerodrome, Airfield)
Use:Public/Civil
Latitude:48°53'03"N (48.884167)
Longitude:24°41'10"E (24.686111)
Elevation:919 ft (280 m)
Runways:1
Longest:8226 × 144 ft (2507 × 44 m)

Time
Timezone:UTC+2 (DST+5)
Local Time:

Weather
METAR:UKLI  041400Z 32005MPS 280V360 CAVOK 03/M01 Q1027 R28/190050 NOSIG
TAF:UKLI  (expired)

Related Locations
Nearby:
Farthest:CHT: 11372 mi / 18302 km
Waitangi [Tuuta], CIT, NZ

Find:

   beyond  
but within

Other Information
Maps:
Sources:

  


 


Great Circle Mapper   Great Circle Mapper
Great Circle Mapper FAQ   Great Circle Mapper FAQ
  Karl's Home Page
KLSē   KLSē Home
   GC on Facebook
Airlines of the World   Airlines of the World
Donate via PayPal


Copyright © 2004-2020, Karl L. Swartz. All rights reserved.
All trademarks mentioned herein belong to their respective owners.

Please see credits for attribution and copyright information.

Karl Swartz <karl@kls2.com>
  Powered by FreeBSD
Valid HTML 4.01!
Labeled with ICRA
hCard Microformat
Geo Microformat